createdAt,value
2024-03-12T00:01:01.079Z,83.96
2024-03-12T00:03:31.361Z,83.62
2024-03-12T00:06:00.789Z,83.66
2024-03-12T00:08:30.790Z,84.09
2024-03-12T00:10:57.461Z,83.46
2024-03-12T00:13:24.750Z,83.46
2024-03-12T00:15:51.399Z,83.76
2024-03-12T00:18:18.454Z,83.76
2024-03-12T00:20:46.689Z,83.02
2024-03-12T00:23:13.367Z,83.88
2024-03-12T00:25:41.774Z,84.37
2024-03-12T00:28:09.650Z,84.25
2024-03-12T00:30:36.554Z,83.88
2024-03-12T00:33:03.302Z,84.48
2024-03-12T00:35:30.038Z,84.95
2024-03-12T00:37:58.402Z,84.31
2024-03-12T00:40:34.379Z,84.37
2024-03-12T00:43:01.690Z,84.04
2024-03-12T00:45:30.866Z,83.67
2024-03-12T00:47:58.524Z,84.90
2024-03-12T00:50:25.212Z,84.80
2024-03-12T00:52:54.378Z,84.86
2024-03-12T00:55:22.168Z,85.97
2024-03-12T00:57:49.653Z,85.32
2024-03-12T01:00:34.929Z,85.52
2024-03-12T01:03:02.321Z,85.69
2024-03-12T01:05:32.965Z,85.95
2024-03-12T01:08:01.396Z,85.81
2024-03-12T01:10:32.506Z,86.31
2024-03-12T01:13:01.239Z,86.04
2024-03-12T01:15:28.185Z,85.14
2024-03-12T01:17:55.610Z,86.59
2024-03-12T01:20:23.385Z,85.73
2024-03-12T01:22:52.823Z,86.42
2024-03-12T01:25:22.724Z,85.06
2024-03-12T01:27:50.508Z,85.64
2024-03-12T01:30:22.079Z,84.91
2024-03-12T01:32:49.205Z,84.79
2024-03-12T01:35:15.911Z,85.21
2024-03-12T01:37:44.516Z,85.27
2024-03-12T01:40:22.744Z,85.63
2024-03-12T01:42:55.202Z,84.82
2024-03-12T01:45:24.026Z,85.74
2024-03-12T01:47:52.113Z,85.54
2024-03-12T01:50:21.939Z,86.54
2024-03-12T01:52:49.346Z,86.32
2024-03-12T01:55:16.079Z,86.87
2024-03-12T01:57:44.203Z,86.96
2024-03-12T02:00:18.935Z,86.66
2024-03-12T02:02:53.710Z,86.92
2024-03-12T02:05:20.980Z,87.95
2024-03-12T02:07:50.352Z,88.02
2024-03-12T02:10:20.009Z,87.77
2024-03-12T02:12:47.804Z,88.02
2024-03-12T02:15:18.881Z,88.48
2024-03-12T02:17:45.923Z,89.05
2024-03-12T02:20:13.999Z,88.87
2024-03-12T02:22:41.301Z,88.51
2024-03-12T02:25:11.313Z,88.56
2024-03-12T02:27:38.945Z,88.09
2024-03-12T02:30:06.573Z,88.48
2024-03-12T02:32:33.749Z,88.39
2024-03-12T02:35:00.550Z,88.01
2024-03-12T02:37:27.077Z,87.96
2024-03-12T02:39:53.594Z,88.36
2024-03-12T02:42:20.223Z,88.40
2024-03-12T02:44:47.044Z,88.15
2024-03-12T02:47:14.068Z,88.04
2024-03-12T02:49:40.879Z,88.16
2024-03-12T02:52:08.024Z,88.34
2024-03-12T02:54:34.546Z,88.62
2024-03-12T02:57:01.110Z,88.28
2024-03-12T02:59:28.551Z,87.89
2024-03-12T03:01:58.307Z,87.53
2024-03-12T03:04:25.015Z,88.50
2024-03-12T03:06:52.541Z,88.65
2024-03-12T03:09:19.656Z,88.15
2024-03-12T03:11:46.748Z,88.29
2024-03-12T03:14:13.343Z,88.45
2024-03-12T03:16:39.958Z,88.30
2024-03-12T03:19:06.635Z,88.11
2024-03-12T03:21:33.270Z,88.01
2024-03-12T03:23:59.841Z,87.81
2024-03-12T03:26:26.607Z,88.24
2024-03-12T03:28:53.760Z,88.78
2024-03-12T03:31:20.261Z,87.82
2024-03-12T03:33:48.528Z,87.61
2024-03-12T03:36:15.479Z,88.02
2024-03-12T03:38:42.148Z,88.11
2024-03-12T03:41:09.575Z,88.56
2024-03-12T03:43:37.754Z,87.82
2024-03-12T03:46:04.959Z,87.71
2024-03-12T03:48:31.608Z,87.81
2024-03-12T03:50:58.097Z,87.18
2024-03-12T03:53:24.711Z,87.72
2024-03-12T03:55:51.314Z,87.17
2024-03-12T03:58:19.567Z,86.77
2024-03-12T04:00:46.314Z,87.52
2024-03-12T04:03:12.862Z,87.80
2024-03-12T04:05:39.410Z,86.91
2024-03-12T04:08:07.513Z,86.23
2024-03-12T04:10:34.363Z,86.98
2024-03-12T04:13:01.665Z,86.86
2024-03-12T04:15:30.314Z,86.77
2024-03-12T04:17:57.878Z,86.49
2024-03-12T04:20:24.626Z,86.67
2024-03-12T04:22:51.249Z,86.01
2024-03-12T04:25:18.608Z,86.38
2024-03-12T04:27:46.985Z,86.49
2024-03-12T04:30:14.925Z,86.59
2024-03-12T04:32:42.047Z,87.08
2024-03-12T04:35:11.213Z,87.74
2024-03-12T04:37:38.097Z,87.78
2024-03-12T04:40:09.077Z,87.56
2024-03-12T04:42:39.575Z,87.85
2024-03-12T04:45:07.939Z,87.82
2024-03-12T04:47:36.642Z,88.14
2024-03-12T04:50:04.232Z,87.93
2024-03-12T04:52:30.904Z,88.05
2024-03-12T04:54:58.302Z,88.04
2024-03-12T04:57:24.872Z,87.81
2024-03-12T04:59:51.380Z,87.62
2024-03-12T05:02:17.904Z,87.60
2024-03-12T05:04:44.486Z,88.51
2024-03-12T05:07:13.049Z,88.18
2024-03-12T05:09:39.636Z,87.81
2024-03-12T05:12:06.296Z,88.45
2024-03-12T05:14:32.780Z,88.42
2024-03-12T05:17:00.324Z,87.82
2024-03-12T05:19:27.360Z,88.33
2024-03-12T05:21:54.036Z,87.40
2024-03-12T05:24:20.910Z,87.64
2024-03-12T05:26:50.498Z,87.96
2024-03-12T05:29:18.676Z,87.73
2024-03-12T05:31:45.519Z,87.16
2024-03-12T05:34:19.910Z,86.91
2024-03-12T05:36:50.035Z,87.73
2024-03-12T05:39:21.908Z,87.21
2024-03-12T05:42:08.527Z,87.45
2024-03-12T05:44:53.752Z,87.66
2024-03-12T05:47:38.610Z,87.21
2024-03-12T05:50:06.612Z,86.73
2024-03-12T05:52:34.383Z,87.51
2024-03-12T05:55:01.063Z,87.55
2024-03-12T05:57:29.410Z,86.50
2024-03-12T05:59:57.089Z,86.26
2024-03-12T06:02:23.800Z,85.35
2024-03-12T06:04:50.612Z,86.32
2024-03-12T06:07:19.864Z,85.80
2024-03-12T06:09:47.491Z,85.60
2024-03-12T06:12:13.986Z,86.00
2024-03-12T06:14:40.568Z,85.38
2024-03-12T06:17:07.212Z,85.54
2024-03-12T06:19:33.706Z,86.43
2024-03-12T06:22:00.299Z,85.54
2024-03-12T06:24:26.891Z,85.54
2024-03-12T06:26:55.539Z,85.13
2024-03-12T06:29:23.866Z,85.07
2024-03-12T06:31:50.347Z,85.18
2024-03-12T06:34:17.266Z,85.68
2024-03-12T06:36:43.785Z,85.67
2024-03-12T06:39:14.772Z,85.41
2024-03-12T06:41:42.465Z,85.16
2024-03-12T06:44:12.803Z,84.78
2024-03-12T06:46:39.381Z,85.66
2024-03-12T06:49:08.458Z,85.95
2024-03-12T06:51:35.045Z,85.88
2024-03-12T06:54:01.579Z,86.04
2024-03-12T06:56:30.025Z,86.48
2024-03-12T06:58:58.176Z,86.45
2024-03-12T07:01:31.186Z,85.78
2024-03-12T07:03:58.709Z,86.54
2024-03-12T07:06:25.360Z,86.13
2024-03-12T07:08:52.109Z,86.72
2024-03-12T07:11:20.289Z,85.75
2024-03-12T07:13:50.057Z,86.82
2024-03-12T07:16:16.691Z,86.31
2024-03-12T07:18:44.730Z,87.55
2024-03-12T07:21:11.255Z,87.63
2024-03-12T07:23:37.972Z,87.21
2024-03-12T07:26:05.543Z,87.17
2024-03-12T07:28:32.110Z,88.10
2024-03-12T07:30:58.634Z,87.72
2024-03-12T07:33:25.134Z,88.06
2024-03-12T07:35:51.747Z,87.91
2024-03-12T07:38:18.890Z,88.17
2024-03-12T07:40:45.892Z,88.31
2024-03-12T07:45:43.936Z,88.75
2024-03-12T07:48:10.685Z,89.51
2024-03-12T07:50:37.537Z,89.27
2024-03-12T07:53:06.874Z,90.57
2024-03-12T07:55:34.346Z,90.44
2024-03-12T07:58:03.997Z,90.96
2024-03-12T08:00:30.562Z,91.21
2024-03-12T08:02:57.103Z,91.38
2024-03-12T08:05:24.602Z,92.44
2024-03-12T08:07:51.528Z,92.29
2024-03-12T08:10:18.110Z,92.57
2024-03-12T08:12:44.694Z,93.38
2024-03-12T08:15:14.331Z,93.25
2024-03-12T08:17:40.989Z,94.20
2024-03-12T08:20:11.765Z,93.60
2024-03-12T08:22:39.600Z,93.29
2024-03-12T08:25:08.663Z,93.71
2024-03-12T08:27:35.249Z,93.12
2024-03-12T08:30:01.756Z,93.18
2024-03-12T08:32:29.869Z,93.72
2024-03-12T08:34:56.393Z,92.92
2024-03-12T08:37:23.910Z,93.76
2024-03-12T08:39:51.274Z,92.40
2024-03-12T08:42:17.847Z,92.89
2024-03-12T08:44:44.466Z,92.27
2024-03-12T08:47:10.952Z,92.10
2024-03-12T08:49:37.475Z,91.73
2024-03-12T08:52:04.817Z,91.13
2024-03-12T08:54:32.238Z,91.12
2024-03-12T08:56:58.768Z,90.84
2024-03-12T08:59:25.584Z,89.29
2024-03-12T09:01:52.158Z,88.49
2024-03-12T09:04:18.930Z,89.44
2024-03-12T09:06:45.566Z,89.09
2024-03-12T09:09:15.219Z,89.10
2024-03-12T09:11:42.419Z,88.96
2024-03-12T09:14:08.960Z,88.98
2024-03-12T09:16:35.690Z,87.61
2024-03-12T09:19:02.228Z,88.15
2024-03-12T09:21:29.183Z,87.23
2024-03-12T09:24:01.573Z,85.95
2024-03-12T09:26:29.475Z,84.98
2024-03-12T09:28:56.485Z,84.37
2024-03-12T09:31:23.224Z,85.10
2024-03-12T09:33:50.170Z,85.08
2024-03-12T09:36:16.786Z,85.60
2024-03-12T09:38:45.486Z,84.30
2024-03-12T09:41:14.197Z,85.13
2024-03-12T09:43:45.034Z,86.11
2024-03-12T09:46:17.415Z,85.98
2024-03-12T09:48:45.977Z,85.62
2024-03-12T09:51:13.269Z,85.83
2024-03-12T09:53:42.232Z,86.21
2024-03-12T09:56:09.412Z,85.55
2024-03-12T09:58:36.086Z,85.74
2024-03-12T10:01:04.129Z,85.84
2024-03-12T10:03:32.280Z,86.50
2024-03-12T10:05:58.773Z,86.55
2024-03-12T10:08:32.580Z,86.69
2024-03-12T10:10:59.616Z,86.89
2024-03-12T10:13:26.154Z,87.26
2024-03-12T10:16:01.393Z,88.29
2024-03-12T10:18:29.793Z,90.20
2024-03-12T10:20:58.415Z,91.30
2024-03-12T10:23:27.184Z,92.35
2024-03-12T10:25:54.749Z,92.41
2024-03-12T10:28:26.219Z,93.14
2024-03-12T10:30:53.021Z,94.92
2024-03-12T10:33:21.679Z,96.15
2024-03-12T10:35:49.031Z,97.50
2024-03-12T10:38:28.718Z,97.90
2024-03-12T10:40:59.092Z,98.52
2024-03-12T10:43:25.833Z,98.35
2024-03-12T10:45:53.527Z,99.08
2024-03-12T10:48:22.122Z,99.41
2024-03-12T10:50:49.859Z,100.00
2024-03-12T10:53:17.504Z,99.37
2024-03-12T10:55:44.194Z,98.64
2024-03-12T10:58:12.450Z,98.59
2024-03-12T11:00:42.262Z,98.69
2024-03-12T11:03:14.606Z,99.03
2024-03-12T11:05:44.394Z,99.17
2024-03-12T11:08:11.597Z,99.48
2024-03-12T11:10:38.138Z,99.36
2024-03-12T11:13:08.718Z,99.05
2024-03-12T11:15:36.754Z,98.62
2024-03-12T11:18:06.491Z,99.49
2024-03-12T11:20:34.507Z,97.88
2024-03-12T11:23:02.317Z,97.75
2024-03-12T11:25:33.863Z,98.02
2024-03-12T11:28:21.600Z,97.96
2024-03-12T11:31:08.674Z,98.77
2024-03-12T11:33:50.350Z,98.18
2024-03-12T11:36:21.778Z,98.23
2024-03-12T11:38:48.700Z,97.96
2024-03-12T11:41:17.589Z,98.36
2024-03-12T11:43:44.282Z,98.09
2024-03-12T11:46:16.461Z,96.79
2024-03-12T11:48:44.234Z,96.88
2024-03-12T11:51:13.082Z,97.22
2024-03-12T11:53:40.670Z,95.53
2024-03-12T11:56:09.362Z,95.42
2024-03-12T11:59:02.368Z,94.23
2024-03-12T12:01:33.565Z,93.97
2024-03-12T12:04:05.074Z,94.43
2024-03-12T12:06:33.337Z,93.27
2024-03-12T12:09:09.787Z,92.00
2024-03-12T12:11:38.433Z,93.13
2024-03-12T12:14:10.256Z,93.09
2024-03-12T12:16:37.812Z,92.05
2024-03-12T12:19:12.074Z,90.80
2024-03-12T12:21:44.167Z,91.37
2024-03-12T12:24:12.231Z,92.09
2024-03-12T12:26:40.074Z,91.71
2024-03-12T12:29:09.040Z,92.37
2024-03-12T12:31:37.451Z,91.74
2024-03-12T12:34:06.557Z,91.71
2024-03-12T12:36:37.425Z,92.06
2024-03-12T12:39:10.711Z,91.40
2024-03-12T12:41:43.352Z,91.19
2024-03-12T12:44:17.433Z,90.53
2024-03-12T12:46:46.499Z,91.30
2024-03-12T12:49:14.439Z,90.63
2024-03-12T12:51:42.642Z,90.59
2024-03-12T12:54:10.591Z,90.02
2024-03-12T12:56:44.888Z,90.99
2024-03-12T12:59:13.760Z,91.20
2024-03-12T13:01:41.160Z,91.08
2024-03-12T13:04:25.846Z,90.98
2024-03-12T13:06:54.896Z,91.18
2024-03-12T13:09:37.180Z,90.90
2024-03-12T13:12:08.565Z,91.74
2024-03-12T13:14:37.896Z,91.45
2024-03-12T13:17:04.890Z,91.81
2024-03-12T13:19:31.999Z,91.45
2024-03-12T13:22:00.490Z,91.52
2024-03-12T13:24:30.681Z,91.47
2024-03-12T13:26:59.172Z,89.67
2024-03-12T13:29:25.774Z,89.93
2024-03-12T13:31:52.354Z,89.94
2024-03-12T13:34:20.020Z,89.65
2024-03-12T13:36:48.965Z,89.04
2024-03-12T13:39:16.386Z,89.54
2024-03-12T13:41:43.160Z,89.46
2024-03-12T13:44:09.720Z,89.81
2024-03-12T13:46:37.269Z,90.84
2024-03-12T13:49:15.665Z,91.51
2024-03-12T13:51:47.222Z,92.15
2024-03-12T13:54:15.520Z,92.18
2024-03-12T13:56:42.310Z,92.89
2024-03-12T13:59:08.844Z,92.79
2024-03-12T14:01:35.718Z,93.76
2024-03-12T14:04:02.444Z,94.17
2024-03-12T14:06:31.116Z,95.46
2024-03-12T14:08:57.657Z,94.40
2024-03-12T14:11:26.569Z,95.08
2024-03-12T14:13:53.412Z,94.88
2024-03-12T14:16:23.676Z,94.49
2024-03-12T14:18:51.031Z,93.01
2024-03-12T14:21:18.118Z,93.21
2024-03-12T14:23:44.723Z,93.87
2024-03-12T14:26:11.310Z,93.34
2024-03-12T14:28:37.800Z,92.92
2024-03-12T14:31:04.528Z,94.08
2024-03-12T14:33:31.166Z,94.20
2024-03-12T14:35:57.741Z,94.08
2024-03-12T14:38:24.214Z,94.45
2024-03-12T14:40:50.855Z,92.29
2024-03-12T14:43:17.573Z,87.98
2024-03-12T14:45:47.280Z,84.50
2024-03-12T14:48:14.319Z,84.49
2024-03-12T14:50:41.009Z,81.04
2024-03-12T14:53:09.065Z,78.60
2024-03-12T14:55:35.805Z,77.58
2024-03-12T14:58:02.469Z,76.79
2024-03-12T15:00:29.755Z,77.16
2024-03-12T15:02:58.950Z,76.11
2024-03-12T15:05:25.872Z,76.74
2024-03-12T15:07:52.356Z,77.03
2024-03-12T15:10:19.052Z,74.54
2024-03-12T15:12:45.862Z,70.74
2024-03-12T15:15:13.539Z,69.79
2024-03-12T15:17:41.957Z,70.40
2024-03-12T15:20:11.136Z,69.58
2024-03-12T15:22:38.435Z,65.37
2024-03-12T15:25:07.738Z,65.92
2024-03-12T15:27:35.599Z,67.81
2024-03-12T15:30:02.369Z,69.77
2024-03-12T15:32:29.187Z,71.77
2024-03-12T15:34:57.682Z,73.79
2024-03-12T15:37:24.544Z,75.47
2024-03-12T15:39:51.120Z,77.10
2024-03-12T15:42:18.317Z,78.89
2024-03-12T15:44:44.811Z,80.11
2024-03-12T15:47:11.442Z,81.10
2024-03-12T15:49:40.439Z,82.41
2024-03-12T15:52:07.156Z,82.70
2024-03-12T15:54:34.301Z,84.07
2024-03-12T15:57:00.906Z,84.29
2024-03-12T15:59:27.431Z,85.20
2024-03-12T16:01:56.997Z,85.34
2024-03-12T16:04:25.680Z,86.08
2024-03-12T16:06:52.237Z,86.40
2024-03-12T16:09:18.948Z,87.98
2024-03-12T16:11:45.481Z,88.50
2024-03-12T16:14:13.498Z,88.45
2024-03-12T16:16:40.740Z,89.19
2024-03-12T16:19:08.001Z,89.20
2024-03-12T16:21:35.358Z,89.30
2024-03-12T16:24:02.558Z,90.09
2024-03-12T16:26:29.417Z,89.85
2024-03-12T16:28:55.886Z,90.92
2024-03-12T16:31:22.390Z,90.09
2024-03-12T16:33:49.720Z,90.78
2024-03-12T16:36:19.419Z,90.60
2024-03-12T16:38:48.759Z,89.10
2024-03-12T16:41:15.660Z,88.93
2024-03-12T16:43:43.456Z,88.95
2024-03-12T16:46:13.329Z,89.60
2024-03-12T16:48:41.262Z,89.78
2024-03-12T16:51:08.410Z,90.11
2024-03-12T16:53:35.099Z,90.46
2024-03-12T16:56:02.179Z,90.86
2024-03-12T16:58:32.235Z,90.89
2024-03-12T17:00:59.540Z,91.62
2024-03-12T17:03:26.885Z,92.04
2024-03-12T17:05:55.790Z,92.25
2024-03-12T17:08:22.551Z,91.40
2024-03-12T17:10:50.084Z,92.34
2024-03-12T17:13:18.015Z,92.66
2024-03-12T17:15:46.883Z,92.71
2024-03-12T17:18:14.045Z,93.05
2024-03-12T17:20:40.747Z,92.17
2024-03-12T17:23:08.147Z,92.19
2024-03-12T17:25:35.386Z,93.09
2024-03-12T17:28:04.927Z,92.60
2024-03-12T17:30:31.810Z,93.00
2024-03-12T17:32:58.586Z,93.67
2024-03-12T17:35:25.398Z,93.17
2024-03-12T17:37:56.741Z,93.58
2024-03-12T17:40:25.281Z,93.45
2024-03-12T17:42:52.217Z,93.22
2024-03-12T17:45:19.131Z,93.71
2024-03-12T17:47:53.812Z,94.43
2024-03-12T17:50:24.081Z,93.30
2024-03-12T17:53:11.174Z,94.65
2024-03-12T17:55:39.472Z,95.00
2024-03-12T17:58:07.085Z,94.87
2024-03-12T18:00:34.605Z,94.10
2024-03-12T18:03:01.300Z,95.11
2024-03-12T18:05:28.150Z,94.97
2024-03-12T18:07:55.035Z,94.37
2024-03-12T18:10:26.109Z,94.54
2024-03-12T18:12:53.569Z,94.48
2024-03-12T18:15:21.395Z,94.19
2024-03-12T18:17:50.793Z,94.38
2024-03-12T18:20:24.563Z,93.80
2024-03-12T18:22:51.247Z,94.52
2024-03-12T18:25:17.860Z,93.61
2024-03-12T18:27:51.433Z,93.48
2024-03-12T18:30:18.117Z,93.39
2024-03-12T18:32:45.622Z,93.28
2024-03-12T18:35:12.571Z,93.22
2024-03-12T18:37:40.762Z,92.68
2024-03-12T18:40:14.894Z,93.54
2024-03-12T18:42:42.898Z,93.15
2024-03-12T18:45:14.116Z,92.63
2024-03-12T18:47:41.103Z,92.97
2024-03-12T18:50:13.058Z,92.63
2024-03-12T18:52:40.451Z,92.20
2024-03-12T18:55:11.305Z,92.98
2024-03-12T18:57:40.577Z,92.87
2024-03-12T19:00:15.579Z,92.39
2024-03-12T19:02:43.792Z,93.09
2024-03-12T19:05:12.763Z,92.80
2024-03-12T19:07:40.654Z,92.77
2024-03-12T19:10:08.100Z,93.08
2024-03-12T19:12:35.563Z,91.74
2024-03-12T19:15:06.265Z,92.59
2024-03-12T19:17:38.215Z,91.69
2024-03-12T19:20:15.630Z,92.09
2024-03-12T19:22:50.948Z,92.57
2024-03-12T19:25:19.899Z,92.26
2024-03-12T19:27:49.535Z,92.43
2024-03-12T19:30:20.875Z,92.06
2024-03-12T19:32:49.231Z,92.35
2024-03-12T19:35:16.141Z,92.55
2024-03-12T19:37:46.543Z,91.89
2024-03-12T19:40:13.943Z,92.71
2024-03-12T19:42:45.288Z,92.66
2024-03-12T19:45:16.470Z,93.61
2024-03-12T19:47:46.220Z,92.84
2024-03-12T19:50:16.042Z,92.24
2024-03-12T19:52:47.268Z,92.75
2024-03-12T19:55:19.197Z,92.66
2024-03-12T19:57:52.513Z,93.55
2024-03-12T20:00:26.709Z,93.92
2024-03-12T20:02:57.761Z,93.34
2024-03-12T20:05:25.537Z,94.29
2024-03-12T20:07:52.464Z,93.87
2024-03-12T20:10:19.186Z,94.16
2024-03-12T20:12:46.261Z,94.31
2024-03-12T20:15:13.221Z,93.56
2024-03-12T20:17:40.954Z,94.03
2024-03-12T20:20:13.908Z,94.06
2024-03-12T20:22:40.852Z,93.98
2024-03-12T20:25:09.557Z,94.45
2024-03-12T20:27:39.428Z,94.93
2024-03-12T20:30:06.755Z,94.00
2024-03-12T20:32:33.633Z,94.26
2024-03-12T20:35:00.630Z,94.48
2024-03-12T20:37:27.239Z,94.61
2024-03-12T20:39:53.781Z,94.83
2024-03-12T20:42:23.126Z,94.33
2024-03-12T20:44:50.936Z,94.31
2024-03-12T20:47:21.181Z,94.29
2024-03-12T20:49:48.754Z,95.45
2024-03-12T20:52:15.669Z,95.26
2024-03-12T20:54:43.325Z,94.78
2024-03-12T20:57:10.522Z,95.83
2024-03-12T20:59:38.579Z,95.80
2024-03-12T21:02:05.412Z,95.32
2024-03-12T21:04:31.942Z,95.47
2024-03-12T21:06:59.355Z,95.99
2024-03-12T21:09:26.092Z,96.62
2024-03-12T21:11:53.348Z,96.03
2024-03-12T21:14:20.328Z,95.87
2024-03-12T21:16:50.285Z,96.70
2024-03-12T21:19:20.240Z,96.47
2024-03-12T21:21:50.864Z,96.19
2024-03-12T21:24:17.365Z,97.03
2024-03-12T21:26:43.870Z,96.96
2024-03-12T21:29:10.435Z,97.00
2024-03-12T21:31:37.536Z,97.35
2024-03-12T21:34:07.722Z,97.58
2024-03-12T21:36:35.761Z,96.72
2024-03-12T21:39:05.418Z,97.16
2024-03-12T21:41:32.010Z,97.46
2024-03-12T21:43:58.502Z,97.82
2024-03-12T21:46:25.587Z,97.08
2024-03-12T21:48:52.137Z,96.87
2024-03-12T21:51:19.217Z,97.16
2024-03-12T21:53:46.584Z,97.68
2024-03-12T21:56:13.781Z,97.72
2024-03-12T21:58:48.441Z,98.16
2024-03-12T22:01:17.728Z,97.81
2024-03-12T22:03:44.298Z,98.13
2024-03-12T22:06:11.873Z,98.50
2024-03-12T22:08:39.338Z,97.91
2024-03-12T22:11:09.434Z,98.19
2024-03-12T22:13:45.258Z,97.68
2024-03-12T22:16:15.899Z,98.08
2024-03-12T22:18:43.306Z,98.40
2024-03-12T22:21:13.577Z,97.90
2024-03-12T22:23:44.828Z,98.36
2024-03-12T22:26:14.758Z,99.21
2024-03-12T22:28:42.858Z,98.57
2024-03-12T22:31:10.885Z,98.66
2024-03-12T22:33:40.346Z,99.34
2024-03-12T22:36:13.585Z,99.83
2024-03-12T22:38:40.277Z,99.16
2024-03-12T22:41:07.180Z,100.00
2024-03-12T22:43:38.276Z,99.77
2024-03-12T22:46:11.711Z,99.79
2024-03-12T22:48:39.233Z,100.00
2024-03-12T22:51:07.651Z,100.00
2024-03-12T22:53:34.249Z,100.00
2024-03-12T22:56:00.939Z,100.00
2024-03-12T22:58:28.628Z,100.00
2024-03-12T23:00:56.121Z,100.00
2024-03-12T23:03:23.620Z,100.00
2024-03-12T23:05:50.474Z,100.00
2024-03-12T23:08:20.456Z,100.00
2024-03-12T23:10:47.814Z,100.00
2024-03-12T23:13:16.918Z,100.00
2024-03-12T23:15:44.264Z,100.00
2024-03-12T23:18:12.926Z,100.00
2024-03-12T23:20:41.405Z,100.00
2024-03-12T23:23:08.745Z,100.00
2024-03-12T23:25:37.407Z,100.00
2024-03-12T23:28:05.209Z,100.00
2024-03-12T23:30:35.128Z,100.00
2024-03-12T23:33:03.020Z,100.00
2024-03-12T23:35:29.792Z,100.00
2024-03-12T23:37:59.396Z,100.00
2024-03-12T23:40:26.812Z,100.00
2024-03-12T23:42:54.815Z,100.00
2024-03-12T23:45:22.200Z,100.00
2024-03-12T23:47:49.403Z,100.00
2024-03-12T23:50:16.166Z,100.00
2024-03-12T23:52:43.119Z,100.00
2024-03-12T23:55:10.926Z,100.00
2024-03-12T23:57:38.149Z,100.00
